Helsinge, Denmark
Current Conditions -  °F | °C
As of 12:50 PM on Tuesday 21 Oct 2014 (Local Time) from EKRK Reporting Station
Broken Clouds Broken Clouds  
Wind Chill: 13°   Ceiling: 4600
Heat Index: 13°   Visibility: 6mi
Dew Point: 11°   Wind: 10mph
Humidity: 88%   Direction: 170°S
Pressure: 29.56"   Gusts: NA
Location:  56.02°N, 12.2°E
Report Text: EKRK 211050Z AUTO 17009KT 9999NDV FEW013/// SCT019///BKN046/// BKN090/// 13/11 Q1001
Loading
Personal Weather Stations






























Interactive Weather Map
Tropical Storm Tracking
New forecast layout! Learn more

10-Day Weather Forecast

Advertisements
Track Severe Weather on mobile